createdAt,value
2022-08-26T00:02:11.460Z,21.30
2022-08-26T00:05:17.633Z,21.50
2022-08-26T00:08:25.026Z,21.50
2022-08-26T00:11:30.078Z,21.43
2022-08-26T00:14:34.111Z,21.54
2022-08-26T00:17:40.359Z,21.60
2022-08-26T00:20:46.205Z,21.64
2022-08-26T00:23:50.229Z,21.62
2022-08-26T00:26:54.139Z,21.54
2022-08-26T00:29:59.122Z,21.43
2022-08-26T00:33:05.661Z,21.53
2022-08-26T00:36:19.989Z,21.56
2022-08-26T00:39:24.530Z,21.28
2022-08-26T00:42:28.798Z,21.44
2022-08-26T00:45:40.965Z,21.41
2022-08-26T00:48:51.809Z,21.34
2022-08-26T00:52:00.371Z,21.40
2022-08-26T00:55:10.119Z,21.24
2022-08-26T00:58:14.371Z,21.24
2022-08-26T01:01:22.900Z,21.28
2022-08-26T01:04:30.062Z,21.38
2022-08-26T01:07:37.843Z,21.23
2022-08-26T01:10:44.864Z,21.03
2022-08-26T01:13:52.515Z,21.12
2022-08-26T01:16:58.368Z,21.06
2022-08-26T01:20:08.787Z,20.87
2022-08-26T01:23:16.488Z,20.83
2022-08-26T01:26:23.292Z,20.86
2022-08-26T01:29:27.635Z,20.95
2022-08-26T01:32:36.713Z,20.94
2022-08-26T01:35:44.700Z,20.93
2022-08-26T01:38:50.607Z,20.99
2022-08-26T01:41:58.039Z,20.97
2022-08-26T01:45:15.100Z,20.81
2022-08-26T01:48:24.738Z,20.73
2022-08-26T01:51:30.546Z,20.65
2022-08-26T01:54:36.960Z,20.75
2022-08-26T01:57:44.360Z,20.88
2022-08-26T02:00:50.377Z,20.87
2022-08-26T02:03:59.879Z,20.92
2022-08-26T02:07:07.694Z,20.80
2022-08-26T02:10:13.805Z,20.77
2022-08-26T02:13:19.097Z,20.84
2022-08-26T02:16:27.478Z,20.88
2022-08-26T02:19:33.395Z,20.77
2022-08-26T02:22:37.617Z,20.72
2022-08-26T02:25:50.911Z,20.66
2022-08-26T02:29:03.371Z,20.72
2022-08-26T02:32:27.136Z,20.77
2022-08-26T02:35:33.299Z,20.84
2022-08-26T02:38:38.049Z,20.72
2022-08-26T02:41:47.478Z,20.46
2022-08-26T02:44:52.500Z,20.52
2022-08-26T02:47:59.642Z,20.59
2022-08-26T02:51:03.535Z,20.56
2022-08-26T02:54:08.018Z,20.57
2022-08-26T02:57:15.077Z,20.32
2022-08-26T03:00:20.894Z,20.44
2022-08-26T03:03:25.624Z,20.57
2022-08-26T03:06:32.498Z,20.77
2022-08-26T03:09:38.925Z,20.70
2022-08-26T03:12:47.530Z,20.79
2022-08-26T03:15:55.558Z,20.62
2022-08-26T03:19:00.991Z,20.78
2022-08-26T03:22:06.123Z,20.88
2022-08-26T03:25:13.345Z,20.85
2022-08-26T03:28:22.154Z,20.82
2022-08-26T03:31:25.463Z,20.83
2022-08-26T03:34:29.363Z,20.88
2022-08-26T03:37:33.913Z,20.95
2022-08-26T03:40:38.927Z,20.79
2022-08-26T03:43:48.484Z,20.58
2022-08-26T03:46:55.100Z,20.67
2022-08-26T03:49:59.750Z,20.77
2022-08-26T03:53:07.441Z,20.77
2022-08-26T03:56:16.831Z,20.77
2022-08-26T03:59:25.072Z,20.86
2022-08-26T04:02:31.828Z,20.74
2022-08-26T04:05:35.750Z,20.79
2022-08-26T04:08:40.260Z,20.73
2022-08-26T04:11:50.744Z,20.89
2022-08-26T04:19:07.465Z,20.63
2022-08-26T04:22:30.040Z,20.59
2022-08-26T04:25:36.205Z,20.69
2022-08-26T04:28:46.468Z,20.77
2022-08-26T04:32:06.707Z,20.92
2022-08-26T04:35:16.050Z,20.93
2022-08-26T04:41:59.394Z,20.87
2022-08-26T04:45:10.387Z,20.74
2022-08-26T04:48:18.504Z,20.66
2022-08-26T04:51:28.033Z,20.96
2022-08-26T04:54:32.083Z,21.02
2022-08-26T04:57:36.382Z,21.13
2022-08-26T05:04:38.699Z,21.13
2022-08-26T05:07:44.668Z,21.05
2022-08-26T05:10:55.380Z,21.20
2022-08-26T05:14:05.810Z,21.18
2022-08-26T05:17:10.238Z,21.38
2022-08-26T05:20:26.231Z,21.53
2022-08-26T05:23:32.182Z,21.69
2022-08-26T05:26:36.487Z,21.90
2022-08-26T05:29:40.820Z,22.11
2022-08-26T05:32:45.136Z,22.32
2022-08-26T05:35:51.781Z,22.40
2022-08-26T05:38:59.254Z,22.57
2022-08-26T05:42:06.476Z,22.42
2022-08-26T05:45:11.668Z,22.75
2022-08-26T05:48:16.890Z,23.04
2022-08-26T05:51:26.098Z,23.23
2022-08-26T05:54:30.785Z,23.40
2022-08-26T05:57:40.455Z,23.69
2022-08-26T06:00:47.013Z,23.75
2022-08-26T06:03:54.255Z,23.96
2022-08-26T06:06:59.963Z,24.04
2022-08-26T06:10:30.479Z,24.32
2022-08-26T06:13:31.911Z,24.04
2022-08-26T06:16:38.777Z,24.38
2022-08-26T06:19:47.394Z,24.76
2022-08-26T06:23:10.473Z,24.80
2022-08-26T06:26:18.559Z,25.10
2022-08-26T06:29:26.946Z,25.09
2022-08-26T06:32:31.722Z,25.23
2022-08-26T06:35:42.567Z,25.32
2022-08-26T06:38:53.032Z,25.74
2022-08-26T06:42:03.161Z,25.86
2022-08-26T06:45:12.334Z,26.05
2022-08-26T06:48:21.873Z,26.45
2022-08-26T06:51:34.744Z,26.61
2022-08-26T06:54:44.340Z,27.08
2022-08-26T06:57:48.704Z,27.50
2022-08-26T07:00:54.136Z,27.93
2022-08-26T07:04:00.429Z,28.31
2022-08-26T07:07:04.604Z,28.86
2022-08-26T07:10:17.439Z,29.28
2022-08-26T07:13:30.503Z,29.45
2022-08-26T07:16:35.779Z,29.59
2022-08-26T07:19:40.523Z,30.05
2022-08-26T07:22:44.337Z,30.37
2022-08-26T07:25:50.904Z,30.45
2022-08-26T07:28:57.788Z,30.36
2022-08-26T07:32:04.650Z,30.72
2022-08-26T07:35:10.553Z,31.05
2022-08-26T07:38:16.896Z,31.32
2022-08-26T07:41:25.454Z,31.45
2022-08-26T07:44:31.347Z,31.71
2022-08-26T07:47:35.810Z,32.22
2022-08-26T07:50:50.339Z,32.15
2022-08-26T07:53:56.569Z,32.23
2022-08-26T07:57:05.214Z,32.61
2022-08-26T08:00:17.150Z,32.71
2022-08-26T08:03:21.882Z,32.54
2022-08-26T08:06:28.883Z,32.87
2022-08-26T08:09:34.277Z,32.89
2022-08-26T08:12:39.798Z,33.05
2022-08-26T08:15:44.910Z,32.82
2022-08-26T08:18:48.663Z,32.46
2022-08-26T08:21:55.135Z,32.22
2022-08-26T08:24:58.822Z,32.02
2022-08-26T08:28:05.213Z,31.48
2022-08-26T08:31:10.449Z,31.18
2022-08-26T08:34:15.267Z,31.34
2022-08-26T08:37:46.210Z,31.19
2022-08-26T08:40:50.657Z,31.05
2022-08-26T08:44:44.446Z,30.57
2022-08-26T08:48:46.709Z,30.34
2022-08-26T08:51:58.991Z,30.40
2022-08-26T08:55:31.731Z,30.08
2022-08-26T08:58:51.552Z,30.14
2022-08-26T09:02:07.576Z,30.08
2022-08-26T09:06:01.059Z,30.06
2022-08-26T09:09:08.863Z,30.08
2022-08-26T09:12:16.674Z,29.91
2022-08-26T09:15:30.202Z,29.99
2022-08-26T09:18:52.733Z,29.90
2022-08-26T09:21:57.859Z,29.91
2022-08-26T09:25:04.531Z,29.97
2022-08-26T09:28:17.528Z,29.90
2022-08-26T09:31:27.014Z,29.97
2022-08-26T09:34:33.730Z,29.95
2022-08-26T09:37:42.326Z,29.77
2022-08-26T09:40:59.103Z,29.87
2022-08-26T09:44:14.625Z,29.92
2022-08-26T09:47:24.307Z,30.01
2022-08-26T09:50:31.941Z,30.08
2022-08-26T09:53:51.315Z,30.13
2022-08-26T09:57:13.828Z,30.08
2022-08-26T10:00:33.505Z,30.13
2022-08-26T10:03:39.820Z,30.26
2022-08-26T10:06:55.982Z,30.33
2022-08-26T10:10:01.004Z,30.32
2022-08-26T10:13:14.362Z,30.26
2022-08-26T10:16:23.552Z,30.33
2022-08-26T10:19:56.195Z,30.33
2022-08-26T10:23:08.508Z,30.39
2022-08-26T10:26:18.252Z,30.49
2022-08-26T10:29:31.350Z,30.27
2022-08-26T10:32:49.967Z,30.41
2022-08-26T10:35:59.778Z,30.29
2022-08-26T10:39:09.726Z,30.09
2022-08-26T10:42:24.603Z,30.11
2022-08-26T10:45:35.771Z,30.15
2022-08-26T10:48:48.457Z,30.14
2022-08-26T10:51:59.982Z,30.17
2022-08-26T10:55:19.224Z,30.20
2022-08-26T10:58:44.639Z,30.29
2022-08-26T11:02:03.886Z,30.29
2022-08-26T11:05:22.692Z,30.39
2022-08-26T11:08:31.012Z,30.39
2022-08-26T11:11:53.379Z,30.26
2022-08-26T11:14:59.144Z,30.25
2022-08-26T11:18:07.832Z,30.41
2022-08-26T11:21:50.724Z,30.47
2022-08-26T11:25:05.493Z,30.50
2022-08-26T11:28:09.278Z,30.55
2022-08-26T11:31:54.103Z,30.76
2022-08-26T11:35:01.520Z,30.87
2022-08-26T11:38:21.274Z,30.88
2022-08-26T11:41:29.435Z,30.84
2022-08-26T11:44:49.576Z,31.06
2022-08-26T11:47:54.864Z,31.13
2022-08-26T11:51:08.463Z,30.97
2022-08-26T11:54:16.408Z,31.22
2022-08-26T11:57:21.811Z,31.24
2022-08-26T12:00:33.471Z,31.06
2022-08-26T12:03:45.512Z,31.05
2022-08-26T12:06:53.845Z,31.08
2022-08-26T12:10:50.971Z,30.93
2022-08-26T12:14:07.217Z,31.04
2022-08-26T12:17:16.060Z,30.98
2022-08-26T12:20:46.024Z,30.69
2022-08-26T12:23:55.040Z,30.89
2022-08-26T12:27:17.561Z,30.83
2022-08-26T12:30:26.445Z,30.98
2022-08-26T12:33:31.267Z,31.07
2022-08-26T12:36:42.378Z,31.12
2022-08-26T12:39:51.848Z,31.02
2022-08-26T12:42:56.879Z,31.10
2022-08-26T12:46:04.895Z,31.08
2022-08-26T12:49:11.021Z,31.16
2022-08-26T12:52:33.987Z,31.01
2022-08-26T12:55:44.112Z,31.08
2022-08-26T12:59:05.005Z,31.11
2022-08-26T13:02:12.070Z,31.16
2022-08-26T13:05:23.982Z,31.07
2022-08-26T13:08:29.495Z,30.95
2022-08-26T13:11:58.465Z,30.57
2022-08-26T13:15:04.028Z,30.51
2022-08-26T13:18:11.251Z,30.28
2022-08-26T13:21:19.902Z,30.42
2022-08-26T13:24:27.781Z,30.22
2022-08-26T13:27:34.653Z,30.26
2022-08-26T13:30:38.474Z,30.36
2022-08-26T13:33:44.738Z,30.27
2022-08-26T13:36:52.062Z,30.11
2022-08-26T13:39:57.690Z,29.99
2022-08-26T13:43:04.145Z,30.09
2022-08-26T13:46:10.487Z,30.07
2022-08-26T13:49:15.308Z,30.00
2022-08-26T13:52:30.265Z,29.92
2022-08-26T13:55:41.076Z,29.84
2022-08-26T13:58:50.095Z,29.80
2022-08-26T14:01:54.853Z,29.69
2022-08-26T14:05:02.518Z,29.69
2022-08-26T14:08:07.561Z,29.74
2022-08-26T14:11:13.004Z,29.77
2022-08-26T14:14:21.411Z,29.70
2022-08-26T14:17:30.690Z,29.68
2022-08-26T14:20:39.108Z,29.68
2022-08-26T14:23:47.752Z,29.65
2022-08-26T14:26:52.889Z,29.65
2022-08-26T14:30:00.419Z,29.67
2022-08-26T14:33:06.945Z,29.66
2022-08-26T14:36:32.342Z,29.65
2022-08-26T14:39:37.226Z,29.56
2022-08-26T14:42:47.857Z,29.60
2022-08-26T14:45:58.695Z,29.53
2022-08-26T14:49:06.194Z,29.53
2022-08-26T14:52:13.748Z,29.44
2022-08-26T14:55:17.811Z,29.27
2022-08-26T14:58:21.877Z,29.24
2022-08-26T15:01:32.625Z,29.29
2022-08-26T15:04:36.705Z,29.31
2022-08-26T15:07:41.492Z,29.33
2022-08-26T15:10:47.110Z,29.22
2022-08-26T15:13:53.622Z,29.12
2022-08-26T15:17:01.005Z,29.17
2022-08-26T15:20:08.733Z,29.20
2022-08-26T15:23:12.970Z,29.21
2022-08-26T15:26:21.068Z,29.26
2022-08-26T15:29:27.742Z,29.28
2022-08-26T15:32:41.400Z,29.31
2022-08-26T15:35:45.665Z,29.34
2022-08-26T15:38:49.994Z,29.40
2022-08-26T15:41:56.345Z,29.43
2022-08-26T15:45:02.292Z,29.42
2022-08-26T15:48:09.894Z,29.47
2022-08-26T15:51:23.109Z,29.46
2022-08-26T15:54:27.654Z,29.50
2022-08-26T15:57:33.786Z,29.49
2022-08-26T16:00:37.924Z,29.48
2022-08-26T16:04:03.772Z,29.45
2022-08-26T16:07:07.774Z,29.43
2022-08-26T16:10:14.896Z,29.40
2022-08-26T16:13:20.437Z,29.41
2022-08-26T16:16:29.474Z,29.37
2022-08-26T16:19:37.596Z,29.35
2022-08-26T16:22:41.659Z,29.30
2022-08-26T16:25:47.711Z,29.30
2022-08-26T16:28:54.322Z,29.28
2022-08-26T16:31:58.635Z,29.23
2022-08-26T16:35:07.085Z,29.22
2022-08-26T16:38:12.177Z,29.16
2022-08-26T16:41:19.418Z,29.13
2022-08-26T16:44:29.875Z,29.10
2022-08-26T16:47:41.399Z,29.04
2022-08-26T16:50:51.408Z,29.01
2022-08-26T16:53:59.979Z,28.94
2022-08-26T16:57:07.645Z,28.87
2022-08-26T17:00:15.483Z,28.81
2022-08-26T17:03:19.697Z,28.75
2022-08-26T17:06:25.758Z,28.67
2022-08-26T17:09:31.639Z,28.60
2022-08-26T17:12:37.524Z,28.38
2022-08-26T17:15:41.821Z,28.40
2022-08-26T17:18:47.477Z,28.30
2022-08-26T17:21:53.936Z,28.09
2022-08-26T17:24:58.759Z,28.06
2022-08-26T17:28:02.865Z,27.95
2022-08-26T17:31:13.888Z,27.91
2022-08-26T17:34:19.167Z,27.78
2022-08-26T17:37:25.435Z,27.69
2022-08-26T17:40:31.746Z,27.57
2022-08-26T17:43:41.375Z,27.33
2022-08-26T17:46:47.006Z,27.30
2022-08-26T17:49:51.722Z,27.21
2022-08-26T17:52:58.124Z,27.25
2022-08-26T17:56:08.925Z,27.08
2022-08-26T17:59:13.558Z,27.11
2022-08-26T18:02:20.390Z,27.02
2022-08-26T18:05:25.933Z,26.87
2022-08-26T18:08:32.012Z,26.80
2022-08-26T18:11:38.858Z,26.66
2022-08-26T18:14:42.845Z,26.54
2022-08-26T18:17:48.079Z,26.42
2022-08-26T18:20:52.792Z,26.43
2022-08-26T18:24:13.332Z,26.13
2022-08-26T18:27:20.020Z,25.85
2022-08-26T18:30:24.910Z,26.02
2022-08-26T18:33:32.391Z,26.05
2022-08-26T18:36:38.386Z,25.96
2022-08-26T18:39:44.835Z,25.86
2022-08-26T18:42:53.998Z,25.89
2022-08-26T18:46:04.048Z,25.55
2022-08-26T18:49:08.508Z,25.52
2022-08-26T18:52:12.841Z,25.69
2022-08-26T18:56:06.304Z,25.72
2022-08-26T18:59:16.241Z,25.58
2022-08-26T19:02:22.425Z,25.56
2022-08-26T19:05:27.605Z,25.49
2022-08-26T19:08:31.311Z,25.14
2022-08-26T19:11:43.045Z,25.18
2022-08-26T19:14:47.343Z,25.31
2022-08-26T19:17:51.208Z,25.25
2022-08-26T19:20:54.810Z,24.97
2022-08-26T19:24:02.721Z,24.72
2022-08-26T19:27:11.730Z,24.45
2022-08-26T19:35:17.638Z,24.58
2022-08-26T19:38:21.734Z,24.67
2022-08-26T19:41:37.240Z,24.72
2022-08-26T19:45:05.132Z,24.54
2022-08-26T19:48:11.800Z,24.65
2022-08-26T19:51:25.750Z,24.67
2022-08-26T19:54:57.404Z,24.65
2022-08-26T19:58:09.566Z,24.61
2022-08-26T20:02:15.854Z,24.50
2022-08-26T20:10:25.192Z,24.10
2022-08-26T20:14:04.939Z,24.20
2022-08-26T20:17:09.001Z,24.24
2022-08-26T20:20:35.059Z,24.24
2022-08-26T20:23:53.880Z,23.83
2022-08-26T20:27:03.222Z,23.69
2022-08-26T20:30:14.206Z,23.62
2022-08-26T20:33:20.039Z,23.64
2022-08-26T20:36:26.963Z,23.59
2022-08-26T20:39:58.651Z,23.71
2022-08-26T20:43:06.082Z,23.66
2022-08-26T20:46:18.269Z,23.67
2022-08-26T20:49:42.997Z,23.47
2022-08-26T20:52:53.538Z,23.65
2022-08-26T20:56:02.671Z,23.55
2022-08-26T20:59:10.854Z,23.74
2022-08-26T21:02:14.888Z,23.26
2022-08-26T21:05:21.443Z,23.12
2022-08-26T21:08:27.032Z,23.00
2022-08-26T21:11:31.498Z,22.67
2022-08-26T21:14:36.847Z,22.82
2022-08-26T21:17:41.619Z,22.85
2022-08-26T21:20:46.631Z,22.89
2022-08-26T21:23:51.064Z,22.90
2022-08-26T21:26:55.869Z,22.71
2022-08-26T21:30:02.729Z,22.74
2022-08-26T21:33:06.840Z,22.78
2022-08-26T21:36:12.663Z,22.74
2022-08-26T21:39:18.215Z,22.84
2022-08-26T21:42:22.459Z,22.84
2022-08-26T21:45:27.993Z,22.72
2022-08-26T21:48:34.747Z,22.82
2022-08-26T21:51:43.022Z,22.89
2022-08-26T21:54:58.191Z,22.70
2022-08-26T21:58:02.433Z,22.83
2022-08-26T22:01:10.758Z,22.92
2022-08-26T22:04:14.727Z,23.04
2022-08-26T22:07:20.029Z,22.85
2022-08-26T22:10:24.871Z,22.68
2022-08-26T22:13:32.872Z,22.77
2022-08-26T22:16:38.218Z,22.80
2022-08-26T22:19:46.101Z,22.79
2022-08-26T22:22:50.380Z,22.71
2022-08-26T22:25:57.790Z,22.70
2022-08-26T22:29:03.431Z,22.69
2022-08-26T22:32:10.257Z,22.55
2022-08-26T22:35:28.774Z,22.31
2022-08-26T22:38:34.665Z,22.47
2022-08-26T22:44:41.588Z,22.59
2022-08-26T22:47:47.159Z,22.42
2022-08-26T22:50:53.320Z,22.34
2022-08-26T22:53:59.054Z,22.44
2022-08-26T22:57:03.808Z,22.50
2022-08-26T23:00:08.988Z,22.54
2022-08-26T23:03:19.191Z,22.43
2022-08-26T23:06:22.992Z,22.30
2022-08-26T23:09:27.465Z,22.44
2022-08-26T23:12:31.627Z,22.51
2022-08-26T23:15:37.645Z,22.54
2022-08-26T23:18:45.599Z,22.32
2022-08-26T23:21:52.371Z,22.27
2022-08-26T23:24:56.236Z,22.26
2022-08-26T23:28:04.771Z,22.16
2022-08-26T23:31:24.453Z,22.16
2022-08-26T23:34:48.115Z,21.86
2022-08-26T23:37:53.407Z,22.11
2022-08-26T23:40:57.684Z,22.10
2022-08-26T23:44:05.172Z,22.00
2022-08-26T23:47:10.732Z,21.89
2022-08-26T23:50:16.251Z,21.85
2022-08-26T23:53:21.800Z,21.71
2022-08-26T23:56:26.661Z,21.72
2022-08-26T23:59:31.232Z,21.69
